MAPA DE AEROPUERTO

INFORMACIÓN METAR y TAF

METAR FOR LELL
ADDS - METARS form results

(1441 UTC 05 December 2020)
Data provider http://aviationweather.gov/metar/data/
 
METAR text: LELL 051430Z 28008KT 240V310 9999 FEW035 11/00 Q0998
Conditions at: LELL (SABADELL , ES) observed 1430 UTC 05 December 2020
Temperature: 11.0°C (52°F)
Dewpoint: 0.0°C (32°F) [RH = 47%]
Pressure (altimeter): 29.47 inches Hg (998.0 mb)
Winds: from the W (280 degrees) at 9 MPH (8 knots; 4.1 m/s)
Visibility: 6 or more miles (10+ km)
Ceiling: at least 12,000 feet AGL
Clouds: few clouds at 3500 feet AGL
Weather: no significant weather observed at this time

METAR text: LELL 051400Z 27006KT 230V320 9999 FEW035 11/01 Q0998
Conditions at: LELL (SABADELL , ES) observed 1400 UTC 05 December 2020
Temperature: 11.0°C (52°F)
Dewpoint: 1.0°C (34°F) [RH = 50%]
Pressure (altimeter): 29.47 inches Hg (998.0 mb)
Winds: from the W (270 degrees) at 7 MPH (6 knots; 3.1 m/s)
Visibility: 6 or more miles (10+ km)
Ceiling: at least 12,000 feet AGL
Clouds: few clouds at 3500 feet AGL
Weather: no significant weather observed at this time

Forecast for: LELL (SABADELL , ES)
Text: TAF LELL 051400Z 0515/0615 26005KT 9999 FEW030 TX12/0613Z TN02/0606Z
Forecast period: 1500 UTC 05 December 2020 to 1500 UTC 06 December 2020
Forecast type: FROM: standard forecast or significant change
Winds: from the W (260 degrees) at 6 MPH (5 knots; 2.6 m/s)
Visibility: 6 or more miles (10+ km)
Ceiling: at least 12,000 feet AGL
Clouds: few clouds at 3000 feet AGL
Weather: no significant weather forecast for this period
Text: TEMPO 0600/0608 VRB03KT
Forecast period: 0000 to 0800 UTC 06 December 2020
Forecast type: TEMPORARY: The following changes expected for less than half the time period
Winds: variable direction winds at 3 MPH (3 knots; 1.5 m/s)
Visibility: missing
Ceiling: unknown
Clouds: missing
Weather: no significant weather forecast for this period